Locust Gap, PA (17840)

02:11 PM EST del 16 Gennaio 2017 (GMT -0500)
Mountain Road | | Change Station
Avvisi attivi: Freezing Rain Advisory

Alt. 1099 ft 40.85 °N, 76.39 °W | Updated 4 minutes ago

Molto nuvoloso
Molto nuvoloso
42.3 °F
Sembra 42 °F
N
2.0
Vento Variabile Vento da NO

Oggi
Massima -- | Minima -- °F
--% Possibilità di precip.
Ieri
Massima -- | Minima -- °F
Precip. -- in
Pressione 30.38 in
Visibilità 10.0 miglia
Nuvole Coperto 2000 ft
Raffreddamento del vento 42 °F
Punto di rugiada 41 °F
Umidità 98%
Piovosità 0.01 in
Spessore del manto nevoso Non disponibile.
7:27 AM 5:04 PM
Gobba a levante, 79% visible
METAR KSEG 161853Z AUTO 16004KT 10SM OVC020 02/M04 A3036 RMK AO2 SLP288 T00171039
Pressione 30.38 in
Visibilità 10.0 miglia
Nuvole Coperto 2000 ft
Raffreddamento del vento 42 °F
Punto di rugiada 41 °F
Umidità 98%
Piovosità 0.01 in
Spessore del manto nevoso Non disponibile.
7:27 AM 5:04 PM
Gobba a levante, 79% visible
METAR KSEG 161853Z AUTO 16004KT 10SM OVC020 02/M04 A3036 RMK AO2 SLP288 T00171039

Get Your Daily Forecast Email!

Thanks for signing up!

Be on the lookout for a verification email in your inbox.

You'll start receiving the daily forecast at 8 AM.

×

10-Day Weather Forecast

Almanac

Astronomia

Jan. 16, 2017 Alba Tramonto
Ora attuale
Crepuscolo civile
Crepuscolo nautico
Crepuscolo astronomico
Luna
Estensione della luce visibile
Lunghezza del giorno
Tomorrow will be .
, % of the Moon is Illuminated

Gli estremi di oggi

State Highs State Lows

Community

WunderPhotos

Upload Photos

1,962,540 foto caricate!

WunderBlog® & News

Nearby

Qualità dell'aria

  Qualità dell'aria Indice AQ Inquinante
Not available.

Profondità neve

Stazione Profondità Altitudine

Attività sismica

Città  Distanza Mag. Data & Ora
Minimo Magnitudo Mostrato è 2.5.

Temperature delle acque costiere

Località Temperatura

Stations

Stazioni meteo nelle vicinanze

Ubicazione della stazione Temp. Raffreddamento del vento Punto di rugiada Umidità Vento Precip. Alt. Aggiornato Tipo
                   

Watches & Warnings

Freezing Rain Advisory
Issued: 03:54 EST Jan. 16, 2017 – National Weather Service

... Freezing Rain Advisory in effect from midnight tonight to
10 am EST Tuesday...

The National Weather Service in State College has issued a
Freezing Rain Advisory... which is in effect from midnight tonight
to 10 am EST Tuesday.

* Light freezing rain developing late tonight into Tuesday
morning.

* Ice accumulation of a light glaze to few hundreths of an inch.

* Icy spots on untreated roads will result in areas of hazardous
travel. Sidewalks and parking lots may also be slippery.

* Longer commute times early Tuesday morning with delays
possible.

* Freezing rain threat ends late Tuesday morning as temperatures
rise above 32 degrees.

Precautionary/preparedness actions...

The Pennsylvania Department of Transportation reminds motorists
to adjust speeds based on driving conditions and to take it slow
in ice and snow.


MS/bl